Terminal Aerodrome Forecast
Issued by NWS Bismarck, ND

Home | Current Version | Previous Version | Graphics & Text | Print | Product List | Glossary On
Versions: 1 2 3 4 5 6 7 8 9 10 11 12 13 14
000
FTUS43 KBIS 260500
TAFISN
TAF
KISN 260540Z 2606/2706 27012G17KT P6SM SCT120 BKN150
     FM261000 28010KT P6SM FEW100 BKN120
     FM261700 26009KT P6SM FEW120 BKN150
     FM262000 23007KT P6SM FEW110 SCT150
     FM270100 19004KT P6SM SCT150=

USA.gov is the U.S. government's official web portal to all federal, state and local government web resources and services.